createdAt,value
2018-05-29T00:01:57.529Z,23.10
2018-05-29T00:04:00.064Z,23.10
2018-05-29T00:06:02.481Z,23.10
2018-05-29T00:08:04.944Z,23.00
2018-05-29T00:10:07.424Z,23.00
2018-05-29T00:12:09.871Z,22.90
2018-05-29T00:14:12.396Z,22.90
2018-05-29T00:16:14.844Z,22.80
2018-05-29T00:18:17.312Z,22.80
2018-05-29T00:20:19.758Z,22.80
2018-05-29T00:22:22.236Z,22.70
2018-05-29T00:24:24.721Z,22.70
2018-05-29T00:26:27.211Z,22.80
2018-05-29T00:28:29.692Z,22.70
2018-05-29T00:30:32.116Z,22.70
2018-05-29T00:32:34.565Z,22.70
2018-05-29T00:34:37.772Z,22.60
2018-05-29T00:36:40.235Z,22.60
2018-05-29T00:38:42.683Z,22.60
2018-05-29T00:40:45.884Z,22.50
2018-05-29T00:42:49.114Z,22.50
2018-05-29T00:44:51.528Z,22.50
2018-05-29T00:46:54.758Z,22.50
2018-05-29T00:48:57.231Z,22.50
2018-05-29T00:50:59.667Z,22.40
2018-05-29T00:53:02.902Z,22.40
2018-05-29T00:55:17.269Z,22.40
2018-05-29T00:57:19.692Z,22.40
2018-05-29T00:59:22.120Z,22.30
2018-05-29T01:01:25.977Z,22.30
2018-05-29T01:03:28.465Z,22.30
2018-05-29T01:05:30.885Z,22.30
2018-05-29T01:07:33.381Z,22.30
2018-05-29T01:09:35.816Z,22.20
2018-05-29T01:11:39.075Z,22.20
2018-05-29T01:13:41.650Z,22.20
2018-05-29T01:15:44.079Z,22.10
2018-05-29T01:17:46.517Z,22.10
2018-05-29T01:19:49.771Z,22.00
2018-05-29T01:21:52.228Z,22.00
2018-05-29T01:23:54.680Z,22.00
2018-05-29T01:25:57.179Z,22.00
2018-05-29T01:27:59.740Z,22.00
2018-05-29T01:30:02.192Z,21.90
2018-05-29T01:32:04.633Z,21.90
2018-05-29T01:34:07.848Z,21.90
2018-05-29T01:36:10.320Z,21.90
2018-05-29T01:38:12.761Z,21.80
2018-05-29T01:40:15.954Z,21.80
2018-05-29T01:42:18.392Z,21.80
2018-05-29T01:44:20.920Z,21.80
2018-05-29T01:46:23.388Z,21.80
2018-05-29T01:48:25.822Z,21.80
2018-05-29T01:50:29.041Z,21.70
2018-05-29T01:52:31.513Z,21.70
2018-05-29T01:54:33.944Z,21.70
2018-05-29T01:56:37.178Z,21.60
2018-05-29T01:58:39.632Z,21.60
2018-05-29T02:00:42.112Z,21.60
2018-05-29T02:02:44.606Z,21.50
2018-05-29T02:04:47.049Z,21.50
2018-05-29T02:06:49.466Z,21.50
2018-05-29T02:08:51.939Z,21.50
2018-05-29T02:10:54.368Z,21.40
2018-05-29T02:12:56.836Z,21.40
2018-05-29T02:14:59.275Z,21.40
2018-05-29T02:17:01.739Z,21.40
2018-05-29T02:19:05.040Z,21.30
2018-05-29T02:21:07.481Z,21.20
2018-05-29T02:23:10.690Z,21.20
2018-05-29T02:25:13.201Z,21.20
2018-05-29T02:27:15.712Z,21.20
2018-05-29T02:29:18.233Z,21.20
2018-05-29T02:31:20.671Z,21.10
2018-05-29T02:33:24.015Z,21.10
2018-05-29T02:35:26.460Z,21.10
2018-05-29T02:37:28.924Z,21.10
2018-05-29T02:39:31.394Z,21.10
2018-05-29T02:41:33.800Z,21.00
2018-05-29T02:43:36.253Z,21.00
2018-05-29T02:45:38.704Z,21.00
2018-05-29T02:47:41.129Z,21.00
2018-05-29T02:49:44.375Z,20.90
2018-05-29T02:51:46.820Z,20.90
2018-05-29T02:53:49.304Z,20.90
2018-05-29T02:55:51.756Z,20.90
2018-05-29T02:57:54.240Z,20.90
2018-05-29T02:59:56.720Z,20.90
2018-05-29T03:01:59.164Z,20.90
2018-05-29T03:04:01.648Z,20.80
2018-05-29T03:06:04.085Z,20.80
2018-05-29T03:08:07.347Z,20.80
2018-05-29T03:10:09.791Z,20.80
2018-05-29T03:12:12.269Z,20.80
2018-05-29T03:14:14.850Z,20.80
2018-05-29T03:16:17.295Z,20.80
2018-05-29T03:18:19.756Z,20.80
2018-05-29T03:20:22.725Z,20.70
2018-05-29T03:22:25.161Z,20.70
2018-05-29T03:24:27.695Z,20.70
2018-05-29T03:26:30.197Z,20.70
2018-05-29T03:28:32.671Z,20.70
2018-05-29T03:30:35.113Z,20.70
2018-05-29T03:32:37.545Z,20.70
2018-05-29T03:34:40.029Z,20.70
2018-05-29T03:36:42.462Z,20.80
2018-05-29T03:38:45.036Z,20.70
2018-05-29T03:40:47.559Z,20.80
2018-05-29T03:42:50.052Z,20.80
2018-05-29T03:44:52.537Z,20.80
2018-05-29T03:46:54.961Z,20.90
2018-05-29T03:48:57.395Z,20.90
2018-05-29T03:51:00.590Z,20.90
2018-05-29T03:53:03.032Z,20.90
2018-05-29T03:55:05.475Z,20.90
2018-05-29T03:57:07.920Z,20.90
2018-05-29T03:59:10.377Z,21.00
2018-05-29T04:01:12.855Z,21.00
2018-05-29T04:03:15.288Z,21.00
2018-05-29T04:05:18.508Z,21.00
2018-05-29T04:07:20.954Z,21.00
2018-05-29T04:09:24.180Z,21.20
2018-05-29T04:11:26.697Z,21.20
2018-05-29T04:13:29.114Z,21.20
2018-05-29T04:15:31.552Z,21.30
2018-05-29T04:17:34.765Z,21.50
2018-05-29T04:19:37.213Z,21.40
2018-05-29T04:21:39.656Z,21.50
2018-05-29T04:23:42.092Z,21.50
2018-05-29T04:25:44.525Z,21.50
2018-05-29T04:27:46.948Z,21.50
2018-05-29T04:29:49.395Z,21.60
2018-05-29T04:31:51.864Z,21.70
2018-05-29T04:33:54.329Z,21.70
2018-05-29T04:35:56.780Z,21.70
2018-05-29T04:37:59.219Z,21.80
2018-05-29T04:40:01.660Z,21.90
2018-05-29T04:42:04.109Z,21.90
2018-05-29T04:44:06.569Z,22.00
2018-05-29T04:46:08.998Z,22.10
2018-05-29T04:48:11.441Z,22.20
2018-05-29T04:50:13.909Z,22.30
2018-05-29T04:52:16.334Z,22.40
2018-05-29T04:54:18.844Z,22.40
2018-05-29T04:56:21.316Z,22.70
2018-05-29T04:58:23.753Z,23.10
2018-05-29T05:00:26.408Z,23.60
2018-05-29T05:02:29.712Z,24.60
2018-05-29T05:04:32.216Z,24.60
2018-05-29T05:06:34.689Z,25.00
2018-05-29T05:08:37.092Z,25.50
2018-05-29T05:10:40.303Z,26.30
2018-05-29T05:12:42.771Z,26.20
2018-05-29T05:14:46.048Z,27.20
2018-05-29T05:16:49.236Z,27.50
2018-05-29T05:18:52.440Z,27.80
2018-05-29T05:20:54.949Z,27.80
2018-05-29T05:22:57.484Z,28.00
2018-05-29T05:25:00.690Z,28.50
2018-05-29T05:27:03.213Z,28.50
2018-05-29T05:29:05.633Z,28.80
2018-05-29T05:31:08.108Z,29.10
2018-05-29T05:33:10.587Z,29.30
2018-05-29T05:35:13.044Z,29.40
2018-05-29T05:37:15.616Z,29.60
2018-05-29T05:39:18.040Z,29.90
2018-05-29T05:41:21.269Z,30.40
2018-05-29T05:43:23.753Z,30.40
2018-05-29T05:45:26.191Z,30.80
2018-05-29T05:47:28.693Z,31.10
2018-05-29T05:49:31.137Z,31.40
2018-05-29T05:51:33.623Z,31.60
2018-05-29T05:53:36.094Z,31.60
2018-05-29T05:55:39.488Z,31.50
2018-05-29T05:57:41.908Z,31.50
2018-05-29T05:59:45.143Z,31.70
2018-05-29T06:01:47.573Z,31.70
2018-05-29T06:03:50.801Z,32.20
2018-05-29T06:05:53.232Z,32.10
2018-05-29T06:07:56.420Z,32.90
2018-05-29T06:09:59.723Z,33.10
2018-05-29T06:12:02.153Z,33.10
2018-05-29T06:14:04.676Z,33.30
2018-05-29T06:16:07.150Z,33.40
2018-05-29T06:18:09.580Z,33.60
2018-05-29T06:20:12.822Z,34.20
2018-05-29T06:22:15.904Z,34.20
2018-05-29T06:24:18.332Z,34.40
2018-05-29T06:26:21.544Z,34.90
2018-05-29T06:28:24.037Z,34.80
2018-05-29T06:30:26.478Z,35.00
2018-05-29T06:32:28.961Z,35.20
2018-05-29T06:34:31.404Z,35.30
2018-05-29T06:36:34.629Z,35.60
2018-05-29T06:38:37.083Z,35.60
2018-05-29T06:40:40.256Z,35.90
2018-05-29T06:42:42.756Z,35.90
2018-05-29T06:44:45.184Z,36.00
2018-05-29T06:46:48.397Z,36.10
2018-05-29T06:48:50.883Z,36.00
2018-05-29T06:50:53.318Z,36.10
2018-05-29T06:52:55.753Z,36.20
2018-05-29T06:54:58.176Z,36.10
2018-05-29T06:57:00.613Z,35.70
2018-05-29T06:59:03.808Z,34.50
2018-05-29T07:01:07.110Z,34.00
2018-05-29T07:03:10.297Z,33.50
2018-05-29T07:05:12.721Z,33.50
2018-05-29T07:07:15.256Z,33.10
2018-05-29T07:09:29.756Z,32.50
2018-05-29T07:11:32.189Z,32.20
2018-05-29T07:13:35.550Z,32.00
2018-05-29T07:15:38.759Z,31.60
2018-05-29T07:17:41.227Z,31.60
2018-05-29T07:19:43.688Z,31.50
2018-05-29T07:21:46.165Z,31.30
2018-05-29T07:23:48.584Z,31.20
2018-05-29T07:25:52.164Z,31.00
2018-05-29T07:27:55.359Z,30.90
2018-05-29T07:29:57.788Z,30.90
2018-05-29T07:32:00.224Z,30.90
2018-05-29T07:34:03.412Z,31.10
2018-05-29T07:36:06.628Z,31.20
2018-05-29T07:38:09.756Z,31.20
2018-05-29T07:40:12.180Z,31.30
2018-05-29T07:42:14.644Z,31.40
2018-05-29T07:44:17.124Z,31.30
2018-05-29T07:46:19.594Z,31.20
2018-05-29T07:48:22.276Z,30.90
2018-05-29T07:50:24.737Z,30.60
2018-05-29T07:52:27.172Z,30.50
2018-05-29T07:54:30.397Z,30.50
2018-05-29T07:56:32.841Z,30.50
2018-05-29T07:58:36.056Z,30.40
2018-05-29T08:00:38.472Z,30.40
2018-05-29T08:02:41.680Z,30.30
2018-05-29T08:04:44.982Z,30.00
2018-05-29T08:06:48.188Z,29.90
2018-05-29T08:08:50.612Z,29.90
2018-05-29T08:10:53.812Z,30.20
2018-05-29T08:12:57.011Z,30.40
2018-05-29T08:14:59.440Z,30.40
2018-05-29T08:17:02.692Z,30.80
2018-05-29T08:19:05.160Z,30.80
2018-05-29T08:21:07.628Z,30.90
2018-05-29T08:23:10.100Z,30.90
2018-05-29T08:25:12.532Z,31.00
2018-05-29T08:27:15.752Z,31.10
2018-05-29T08:29:18.220Z,31.10
2018-05-29T08:31:20.692Z,31.10
2018-05-29T08:33:23.125Z,31.10
2018-05-29T08:35:26.353Z,31.10
2018-05-29T08:37:28.803Z,31.10
2018-05-29T08:39:32.097Z,31.10
2018-05-29T08:41:34.506Z,31.10
2018-05-29T08:43:36.967Z,31.20
2018-05-29T08:45:39.422Z,31.20
2018-05-29T08:47:41.852Z,31.20
2018-05-29T08:49:46.279Z,31.00
2018-05-29T08:51:49.499Z,30.80
2018-05-29T08:53:51.906Z,30.80
2018-05-29T08:55:54.357Z,30.80
2018-05-29T08:57:56.927Z,30.90
2018-05-29T08:59:59.368Z,31.00
2018-05-29T09:02:01.847Z,31.00
2018-05-29T09:04:04.313Z,31.10
2018-05-29T09:06:07.469Z,31.20
2018-05-29T09:08:10.685Z,31.20
2018-05-29T09:10:13.124Z,31.20
2018-05-29T09:12:16.345Z,31.40
2018-05-29T09:14:18.826Z,31.40
2018-05-29T09:16:21.253Z,31.50
2018-05-29T09:18:25.478Z,31.10
2018-05-29T09:20:28.680Z,31.20
2018-05-29T09:22:31.100Z,31.20
2018-05-29T09:24:34.293Z,31.40
2018-05-29T09:26:37.489Z,31.60
2018-05-29T09:28:40.684Z,31.70
2018-05-29T09:30:43.121Z,31.60
2018-05-29T09:32:46.516Z,31.80
2018-05-29T09:35:01.059Z,31.80
2018-05-29T09:37:03.601Z,31.70
2018-05-29T09:39:06.062Z,31.70
2018-05-29T09:41:08.528Z,31.70
2018-05-29T09:43:20.335Z,31.70
2018-05-29T09:45:23.573Z,31.70
2018-05-29T09:47:26.810Z,31.80
2018-05-29T09:49:29.240Z,31.80
2018-05-29T09:51:32.501Z,31.90
2018-05-29T09:53:34.964Z,31.80
2018-05-29T09:55:37.447Z,32.00
2018-05-29T09:57:39.937Z,32.10
2018-05-29T09:59:43.174Z,32.20
2018-05-29T10:01:46.208Z,32.20
2018-05-29T10:03:48.708Z,32.30
2018-05-29T10:05:52.065Z,32.30
2018-05-29T10:07:55.290Z,32.30
2018-05-29T10:09:58.771Z,32.30
2018-05-29T10:12:00.916Z,32.50
2018-05-29T10:14:04.103Z,32.50
2018-05-29T10:16:06.529Z,32.50
2018-05-29T10:18:08.961Z,32.30
2018-05-29T10:20:11.445Z,32.10
2018-05-29T10:22:13.916Z,32.10
2018-05-29T10:24:16.328Z,32.20
2018-05-29T10:26:18.868Z,32.30
2018-05-29T10:28:21.325Z,32.30
2018-05-29T10:30:23.748Z,32.40
2018-05-29T10:32:27.004Z,32.60
2018-05-29T10:34:29.452Z,32.50
2018-05-29T10:36:31.881Z,32.60
2018-05-29T10:38:35.081Z,32.60
2018-05-29T10:40:37.581Z,32.60
2018-05-29T10:42:40.052Z,32.50
2018-05-29T10:44:42.479Z,32.30
2018-05-29T10:46:45.708Z,32.30
2018-05-29T10:48:48.148Z,32.30
2018-05-29T10:50:50.648Z,32.50
2018-05-29T10:52:53.090Z,32.80
2018-05-29T10:54:55.589Z,32.90
2018-05-29T10:56:58.054Z,33.00
2018-05-29T10:59:00.493Z,33.00
2018-05-29T11:01:03.722Z,32.90
2018-05-29T11:03:06.184Z,32.80
2018-05-29T11:05:08.616Z,32.80
2018-05-29T11:07:11.837Z,32.90
2018-05-29T11:09:14.272Z,32.90
2018-05-29T11:11:17.462Z,33.00
2018-05-29T11:13:20.687Z,33.10
2018-05-29T11:15:23.148Z,33.10
2018-05-29T11:17:25.630Z,33.20
2018-05-29T11:19:28.065Z,33.20
2018-05-29T11:21:30.560Z,33.20
2018-05-29T11:23:32.996Z,33.30
2018-05-29T11:25:36.184Z,33.40
2018-05-29T11:27:39.400Z,33.50
2018-05-29T11:29:41.837Z,33.50
2018-05-29T11:31:45.033Z,33.60
2018-05-29T11:33:48.252Z,33.80
2018-05-29T11:35:50.692Z,33.80
2018-05-29T11:37:53.194Z,33.80
2018-05-29T11:39:55.621Z,34.00
2018-05-29T11:41:59.002Z,34.10
2018-05-29T11:44:01.424Z,34.10
2018-05-29T11:46:03.892Z,34.00
2018-05-29T11:48:06.362Z,33.70
2018-05-29T11:50:08.834Z,33.50
2018-05-29T11:52:11.252Z,33.50
2018-05-29T11:54:14.488Z,33.80
2018-05-29T11:56:16.912Z,33.80
2018-05-29T11:58:20.104Z,34.00
2018-05-29T12:00:23.314Z,34.10
2018-05-29T12:02:26.552Z,34.10
2018-05-29T12:04:29.809Z,34.10
2018-05-29T12:06:32.243Z,34.00
2018-05-29T12:08:35.436Z,34.00
2018-05-29T12:10:37.949Z,34.00
2018-05-29T12:12:40.383Z,34.30
2018-05-29T12:14:42.817Z,34.40
2018-05-29T12:16:45.246Z,34.60
2018-05-29T12:18:47.680Z,34.70
2018-05-29T12:20:50.912Z,34.50
2018-05-29T12:22:53.384Z,34.50
2018-05-29T12:24:55.822Z,34.50
2018-05-29T12:26:58.244Z,34.50
2018-05-29T12:29:01.497Z,35.10
2018-05-29T12:31:03.951Z,35.00
2018-05-29T12:33:07.136Z,35.60
2018-05-29T12:35:09.573Z,35.60
2018-05-29T12:37:12.097Z,35.80
2018-05-29T12:39:14.587Z,35.90
2018-05-29T12:41:17.055Z,35.60
2018-05-29T12:43:19.486Z,35.20
2018-05-29T12:45:21.973Z,35.00
2018-05-29T12:47:24.443Z,35.00
2018-05-29T12:49:26.883Z,35.10
2018-05-29T12:51:30.072Z,34.90
2018-05-29T12:53:32.576Z,34.80
2018-05-29T12:55:35.037Z,34.70
2018-05-29T12:57:37.512Z,34.50
2018-05-29T12:59:39.980Z,34.40
2018-05-29T13:01:42.451Z,34.50
2018-05-29T13:03:44.876Z,34.60
2018-05-29T13:05:47.390Z,34.60
2018-05-29T13:07:49.817Z,34.60
2018-05-29T13:09:53.069Z,34.30
2018-05-29T13:11:55.518Z,34.30
2018-05-29T13:13:57.950Z,33.90
2018-05-29T13:16:01.201Z,33.90
2018-05-29T13:18:03.633Z,33.90
2018-05-29T13:20:06.061Z,33.70
2018-05-29T13:22:08.602Z,33.70
2018-05-29T13:24:11.008Z,33.80
2018-05-29T13:26:14.241Z,34.40
2018-05-29T13:28:16.712Z,34.30
2018-05-29T13:30:19.140Z,34.60
2018-05-29T13:32:22.369Z,34.90
2018-05-29T13:34:24.859Z,34.80
2018-05-29T13:36:27.304Z,34.70
2018-05-29T13:38:29.780Z,34.50
2018-05-29T13:40:32.219Z,34.50
2018-05-29T13:42:35.420Z,34.70
2018-05-29T13:44:37.904Z,34.60
2018-05-29T13:46:40.376Z,34.50
2018-05-29T13:48:42.809Z,34.30
2018-05-29T13:50:46.030Z,33.40
2018-05-29T13:52:48.497Z,33.40
2018-05-29T13:54:50.958Z,33.30
2018-05-29T13:56:54.183Z,33.60
2018-05-29T13:58:56.615Z,33.50
2018-05-29T14:00:59.125Z,33.80
2018-05-29T14:03:01.571Z,33.90
2018-05-29T14:05:04.000Z,34.10
2018-05-29T14:07:07.220Z,34.40
2018-05-29T14:09:09.657Z,34.30
2018-05-29T14:11:12.876Z,34.50
2018-05-29T14:13:15.364Z,34.50
2018-05-29T14:15:17.829Z,34.60
2018-05-29T14:17:20.342Z,34.70
2018-05-29T14:19:22.793Z,34.80
2018-05-29T14:21:25.248Z,35.00
2018-05-29T14:23:27.712Z,35.10
2018-05-29T14:25:30.189Z,35.20
2018-05-29T14:27:32.661Z,35.20
2018-05-29T14:29:35.157Z,35.30
2018-05-29T14:31:37.701Z,35.40
2018-05-29T14:33:40.137Z,35.40
2018-05-29T14:35:42.615Z,35.40
2018-05-29T14:37:45.116Z,35.40
2018-05-29T14:39:47.568Z,35.30
2018-05-29T14:41:49.988Z,35.30
2018-05-29T14:43:52.615Z,35.30
2018-05-29T14:45:55.788Z,35.10
2018-05-29T14:47:58.268Z,35.10
2018-05-29T14:50:00.708Z,35.10
2018-05-29T14:52:03.893Z,34.90
2018-05-29T14:54:07.099Z,34.80
2018-05-29T14:56:09.563Z,34.80
2018-05-29T14:58:12.753Z,34.50
2018-05-29T15:00:15.195Z,34.40
2018-05-29T15:02:17.767Z,34.30
2018-05-29T15:04:20.323Z,34.20
2018-05-29T15:06:23.538Z,34.00
2018-05-29T15:08:26.803Z,33.80
2018-05-29T15:10:30.756Z,33.70
2018-05-29T15:12:33.227Z,33.70
2018-05-29T15:14:35.661Z,33.60
2018-05-29T15:16:38.109Z,33.50
2018-05-29T15:18:40.555Z,33.40
2018-05-29T15:20:43.024Z,33.30
2018-05-29T15:22:45.517Z,33.20
2018-05-29T15:24:49.484Z,33.10
2018-05-29T15:26:51.944Z,33.00
2018-05-29T15:28:54.417Z,33.00
2018-05-29T15:30:56.861Z,33.00
2018-05-29T15:33:00.126Z,32.90
2018-05-29T15:35:02.574Z,32.90
2018-05-29T15:37:05.005Z,32.90
2018-05-29T15:39:08.353Z,32.80
2018-05-29T15:41:11.582Z,32.80
2018-05-29T15:43:14.068Z,32.80
2018-05-29T15:45:16.544Z,32.80
2018-05-29T15:47:19.109Z,32.80
2018-05-29T15:49:21.542Z,32.70
2018-05-29T15:51:24.008Z,32.60
2018-05-29T15:53:27.242Z,32.50
2018-05-29T15:55:29.672Z,32.50
2018-05-29T15:57:32.895Z,32.30
2018-05-29T15:59:35.349Z,32.20
2018-05-29T16:01:37.801Z,32.20
2018-05-29T16:03:41.003Z,32.00
2018-05-29T16:05:43.416Z,32.00
2018-05-29T16:07:45.864Z,32.00
2018-05-29T16:09:48.338Z,31.90
2018-05-29T16:11:51.360Z,31.80
2018-05-29T16:13:53.852Z,31.70
2018-05-29T16:15:57.803Z,31.50
2018-05-29T16:18:00.241Z,31.50
2018-05-29T16:20:02.700Z,31.40
2018-05-29T16:22:05.902Z,31.30
2018-05-29T16:24:08.345Z,31.30
2018-05-29T16:26:11.573Z,31.20
2018-05-29T16:28:14.170Z,31.20
2018-05-29T16:30:16.596Z,31.20
2018-05-29T16:32:19.086Z,31.10
2018-05-29T16:34:21.564Z,30.90
2018-05-29T16:36:24.013Z,30.70
2018-05-29T16:38:26.460Z,30.60
2018-05-29T16:40:29.760Z,30.40
2018-05-29T16:42:32.172Z,30.40
2018-05-29T16:44:34.833Z,30.20
2018-05-29T16:46:37.328Z,30.00
2018-05-29T16:48:39.785Z,29.90
2018-05-29T16:50:42.209Z,29.80
2018-05-29T16:52:44.713Z,29.80
2018-05-29T16:54:47.183Z,29.70
2018-05-29T16:56:49.606Z,29.50
2018-05-29T16:58:52.792Z,29.30
2018-05-29T17:00:56.029Z,29.20
2018-05-29T17:02:58.494Z,29.20
2018-05-29T17:05:00.961Z,29.20
2018-05-29T17:07:03.384Z,29.30
2018-05-29T17:09:06.580Z,29.20
2018-05-29T17:11:09.777Z,29.00
2018-05-29T17:13:13.003Z,28.90
2018-05-29T17:15:15.518Z,28.90
2018-05-29T17:17:17.892Z,28.60
2018-05-29T17:19:21.131Z,28.20
2018-05-29T17:21:23.561Z,28.20
2018-05-29T17:23:26.776Z,28.00
2018-05-29T17:25:29.251Z,28.00
2018-05-29T17:27:31.676Z,27.90
2018-05-29T17:29:34.878Z,27.60
2018-05-29T17:31:38.240Z,27.50
2018-05-29T17:33:41.480Z,27.50
2018-05-29T17:35:43.916Z,27.50
2018-05-29T17:37:47.184Z,27.50
2018-05-29T17:39:50.224Z,27.40
2018-05-29T17:41:52.656Z,27.50
2018-05-29T17:43:55.885Z,27.40
2018-05-29T17:45:58.319Z,27.40
2018-05-29T17:48:01.513Z,27.40
2018-05-29T17:50:04.702Z,27.30
2018-05-29T17:52:07.136Z,27.30
2018-05-29T17:54:09.565Z,27.30
2018-05-29T17:56:12.016Z,27.30
2018-05-29T17:58:14.504Z,27.30
2018-05-29T18:00:16.944Z,27.30
2018-05-29T18:02:19.366Z,27.30
2018-05-29T18:04:21.801Z,27.30
2018-05-29T18:06:24.285Z,27.20
2018-05-29T18:08:26.760Z,27.20
2018-05-29T18:10:29.186Z,27.20
2018-05-29T18:12:32.416Z,27.10
2018-05-29T18:14:34.849Z,27.10
2018-05-29T18:16:39.106Z,27.00
2018-05-29T18:18:42.038Z,27.00
2018-05-29T18:20:45.278Z,26.80
2018-05-29T18:22:47.677Z,26.80
2018-05-29T18:24:50.104Z,26.80
2018-05-29T18:26:52.572Z,26.70
2018-05-29T18:28:55.014Z,26.50
2018-05-29T18:30:58.207Z,25.80
2018-05-29T18:33:00.628Z,25.80
2018-05-29T18:35:03.061Z,25.70
2018-05-29T18:37:05.519Z,25.60
2018-05-29T18:39:08.001Z,25.40
2018-05-29T18:41:10.461Z,25.40
2018-05-29T18:43:12.894Z,25.40
2018-05-29T18:45:16.100Z,25.50
2018-05-29T18:47:19.321Z,25.60
2018-05-29T18:49:21.781Z,25.50
2018-05-29T18:51:24.724Z,25.50
2018-05-29T18:53:27.924Z,25.60
2018-05-29T18:55:31.128Z,25.50
2018-05-29T18:57:33.557Z,25.50
2018-05-29T18:59:36.022Z,25.50
2018-05-29T19:01:38.455Z,25.40
2018-05-29T19:03:40.876Z,25.40
2018-05-29T19:05:44.077Z,25.30
2018-05-29T19:07:47.264Z,25.30
2018-05-29T19:09:49.886Z,25.20
2018-05-29T19:11:52.343Z,25.20
2018-05-29T19:13:54.800Z,25.10
2018-05-29T19:15:57.277Z,25.00
2018-05-29T19:17:59.704Z,24.90
2018-05-29T19:20:02.941Z,24.80
2018-05-29T19:22:05.408Z,24.80
2018-05-29T19:24:10.224Z,24.80
2018-05-29T19:26:12.714Z,24.70
2018-05-29T19:28:15.137Z,24.60
2018-05-29T19:30:18.341Z,24.60
2018-05-29T19:32:20.772Z,24.60
2018-05-29T19:34:23.204Z,24.60
2018-05-29T19:36:25.673Z,24.50
2018-05-29T19:38:28.180Z,24.50
2018-05-29T19:40:30.718Z,24.50
2018-05-29T19:42:33.144Z,24.40
2018-05-29T19:44:36.346Z,24.30
2018-05-29T19:46:38.844Z,24.20
2018-05-29T19:48:41.269Z,24.20
2018-05-29T19:50:44.490Z,24.20
2018-05-29T19:52:46.943Z,24.20
2018-05-29T19:54:49.414Z,24.20
2018-05-29T19:56:52.589Z,24.10
2018-05-29T19:58:55.787Z,24.10
2018-05-29T20:00:58.273Z,24.10
2018-05-29T20:03:00.704Z,24.00
2018-05-29T20:05:03.901Z,24.00
2018-05-29T20:07:07.120Z,23.90
2018-05-29T20:09:09.585Z,23.90
2018-05-29T20:11:15.459Z,23.90
2018-05-29T20:13:17.904Z,23.80
2018-05-29T20:15:20.389Z,23.80
2018-05-29T20:17:30.989Z,23.80
2018-05-29T20:19:33.423Z,23.80
2018-05-29T20:21:35.880Z,23.70
2018-05-29T20:23:38.349Z,23.70
2018-05-29T20:25:40.821Z,23.70
2018-05-29T20:27:43.240Z,23.70
2018-05-29T20:29:46.666Z,23.50
2018-05-29T20:31:49.088Z,23.50
2018-05-29T20:33:51.562Z,23.50
2018-05-29T20:35:55.520Z,23.50
2018-05-29T20:37:57.973Z,23.50
2018-05-29T20:40:00.477Z,23.50
2018-05-29T20:42:02.901Z,23.50
2018-05-29T20:44:06.108Z,23.50
2018-05-29T20:46:08.592Z,23.40
2018-05-29T20:48:11.018Z,23.40
2018-05-29T20:50:14.216Z,23.40
2018-05-29T20:52:17.437Z,23.30
2018-05-29T20:54:19.937Z,23.30
2018-05-29T20:56:22.394Z,23.30
2018-05-29T20:58:24.848Z,23.30
2018-05-29T21:00:27.288Z,23.20
2018-05-29T21:02:30.637Z,23.30
2018-05-29T21:04:33.096Z,23.20
2018-05-29T21:06:35.560Z,23.20
2018-05-29T21:08:38.019Z,23.20
2018-05-29T21:10:40.508Z,23.20
2018-05-29T21:12:43.012Z,23.10
2018-05-29T21:14:45.487Z,23.10
2018-05-29T21:16:47.953Z,23.10
2018-05-29T21:18:50.406Z,23.10
2018-05-29T21:20:52.936Z,23.20
2018-05-29T21:22:55.377Z,23.10
2018-05-29T21:24:59.324Z,23.20
2018-05-29T21:27:01.819Z,23.10
2018-05-29T21:29:05.214Z,23.20
2018-05-29T21:31:07.642Z,23.20
2018-05-29T21:33:10.925Z,23.20
2018-05-29T21:35:13.382Z,23.20
2018-05-29T21:37:16.613Z,23.10
2018-05-29T21:39:19.068Z,23.10
2018-05-29T21:41:21.607Z,23.10
2018-05-29T21:43:25.251Z,23.00
2018-05-29T21:45:28.389Z,23.00
2018-05-29T21:47:31.238Z,22.90
2018-05-29T21:49:33.660Z,22.90
2018-05-29T21:51:36.103Z,22.80
2018-05-29T21:53:39.407Z,22.80
2018-05-29T21:55:41.844Z,22.80
2018-05-29T21:57:45.781Z,22.70
2018-05-29T21:59:48.282Z,22.70
2018-05-29T22:01:50.726Z,22.70
2018-05-29T22:03:53.176Z,22.80
2018-05-29T22:05:56.378Z,22.80
2018-05-29T22:07:58.864Z,22.80
2018-05-29T22:10:01.351Z,22.80
2018-05-29T22:12:03.808Z,22.90
2018-05-29T22:14:06.259Z,22.90
2018-05-29T22:16:08.743Z,23.00
2018-05-29T22:18:11.217Z,23.00
2018-05-29T22:20:13.677Z,23.00
2018-05-29T22:22:16.164Z,23.00
2018-05-29T22:24:18.609Z,23.00
2018-05-29T22:26:21.824Z,23.00
2018-05-29T22:28:24.280Z,23.00
2018-05-29T22:30:26.788Z,23.10
2018-05-29T22:32:29.230Z,23.10
2018-05-29T22:34:31.667Z,23.10
2018-05-29T22:36:34.862Z,23.10
2018-05-29T22:38:37.302Z,23.10
2018-05-29T22:40:39.833Z,23.10
2018-05-29T22:42:42.284Z,23.10
2018-05-29T22:44:44.772Z,23.00
2018-05-29T22:46:47.251Z,23.00
2018-05-29T22:48:49.918Z,23.00
2018-05-29T22:50:52.381Z,23.00
2018-05-29T22:52:54.833Z,23.00
2018-05-29T22:54:57.369Z,23.00
2018-05-29T22:56:59.801Z,22.90
2018-05-29T22:59:02.855Z,22.90
2018-05-29T23:01:06.043Z,22.70
2018-05-29T23:03:08.528Z,22.70
2018-05-29T23:05:10.984Z,22.50
2018-05-29T23:07:13.418Z,22.30
2018-05-29T23:09:15.942Z,22.30
2018-05-29T23:11:18.495Z,22.20
2018-05-29T23:13:21.704Z,22.20
2018-05-29T23:15:24.132Z,22.20
2018-05-29T23:17:27.348Z,22.20
2018-05-29T23:19:29.779Z,22.20
2018-05-29T23:21:33.028Z,22.30
2018-05-29T23:23:35.444Z,22.20
2018-05-29T23:25:38.652Z,22.20
2018-05-29T23:27:41.139Z,22.20
2018-05-29T23:29:43.585Z,22.20
2018-05-29T23:31:46.064Z,22.20
2018-05-29T23:33:49.296Z,22.20
2018-05-29T23:35:51.740Z,22.20
2018-05-29T23:37:54.224Z,22.20
2018-05-29T23:39:56.652Z,22.10
2018-05-29T23:41:59.092Z,22.10
2018-05-29T23:44:01.542Z,22.10
2018-05-29T23:46:03.992Z,22.10
2018-05-29T23:48:06.444Z,22.00
2018-05-29T23:50:08.921Z,22.00
2018-05-29T23:52:11.385Z,22.00
2018-05-29T23:54:13.972Z,22.00
2018-05-29T23:56:16.437Z,22.00
2018-05-29T23:58:18.913Z,22.00
